createdAt,value
2017-12-20T00:00:43.673Z,21.20
2017-12-20T00:01:43.685Z,21.10
2017-12-20T00:02:43.699Z,21.10
2017-12-20T00:03:43.711Z,21.30
2017-12-20T00:04:43.732Z,21.00
2017-12-20T00:05:43.737Z,22.10
2017-12-20T00:06:43.751Z,21.90
2017-12-20T00:07:43.767Z,22.20
2017-12-20T00:08:43.779Z,22.70
2017-12-20T00:09:43.791Z,22.00
2017-12-20T00:10:43.804Z,21.90
2017-12-20T00:11:43.822Z,22.60
2017-12-20T00:12:43.831Z,21.00
2017-12-20T00:13:43.849Z,22.20
2017-12-20T00:14:43.857Z,22.90
2017-12-20T00:15:43.872Z,23.80
2017-12-20T00:16:43.890Z,24.00
2017-12-20T00:17:43.897Z,22.70
2017-12-20T00:18:43.909Z,24.20
2017-12-20T00:19:43.923Z,24.10
2017-12-20T00:20:43.935Z,23.60
2017-12-20T00:21:43.948Z,23.80
2017-12-20T00:22:43.961Z,24.00
2017-12-20T00:23:43.974Z,24.30
2017-12-20T00:24:43.989Z,25.00
2017-12-20T00:25:44.003Z,24.30
2017-12-20T00:26:44.016Z,23.70
2017-12-20T00:27:44.032Z,24.30
2017-12-20T00:28:44.041Z,24.00
2017-12-20T00:29:44.056Z,23.70
2017-12-20T00:30:44.068Z,24.20
2017-12-20T00:31:44.081Z,24.50
2017-12-20T00:32:44.100Z,24.50
2017-12-20T00:33:44.109Z,24.10
2017-12-20T00:34:44.121Z,25.00
2017-12-20T00:35:44.135Z,24.90
2017-12-20T00:36:44.149Z,25.00
2017-12-20T00:37:44.161Z,24.40
2017-12-20T00:38:44.174Z,25.10
2017-12-20T00:39:44.187Z,25.20
2017-12-20T00:40:44.201Z,24.90
2017-12-20T00:41:44.215Z,25.60
2017-12-20T00:42:44.226Z,25.80
2017-12-20T00:43:44.239Z,25.70
2017-12-20T00:44:44.254Z,25.20
2017-12-20T00:45:44.267Z,25.60
2017-12-20T00:46:44.279Z,26.70
2017-12-20T00:47:44.292Z,27.60
2017-12-20T00:48:44.310Z,28.10
2017-12-20T00:49:44.319Z,26.40
2017-12-20T00:50:44.331Z,26.40
2017-12-20T00:51:44.344Z,27.30
2017-12-20T00:52:44.360Z,28.00
2017-12-20T00:53:44.371Z,26.50
2017-12-20T00:54:44.391Z,27.30
2017-12-20T00:55:44.396Z,27.80
2017-12-20T00:56:44.414Z,26.60
2017-12-20T00:57:44.427Z,27.00
2017-12-20T00:58:44.436Z,26.50
2017-12-20T00:59:44.450Z,27.20
2017-12-20T01:00:44.463Z,27.50
2017-12-20T01:01:44.476Z,27.60
2017-12-20T01:02:44.489Z,27.70
2017-12-20T01:03:44.502Z,27.40
2017-12-20T01:04:44.515Z,28.40
2017-12-20T01:05:44.532Z,27.40
2017-12-20T01:06:44.542Z,27.70
2017-12-20T01:07:44.557Z,27.60
2017-12-20T01:08:44.569Z,27.50
2017-12-20T01:09:44.582Z,27.80
2017-12-20T01:10:44.595Z,28.70
2017-12-20T01:11:44.607Z,29.90
2017-12-20T01:12:44.626Z,29.00
2017-12-20T01:13:44.636Z,29.20
2017-12-20T01:14:44.648Z,28.90
2017-12-20T01:15:44.660Z,29.30
2017-12-20T01:16:44.683Z,30.10
2017-12-20T01:17:44.687Z,28.90
2017-12-20T01:18:44.700Z,30.00
2017-12-20T01:19:44.713Z,29.20
2017-12-20T01:20:44.727Z,29.00
2017-12-20T01:21:44.741Z,30.10
2017-12-20T01:22:44.753Z,29.30
2017-12-20T01:23:44.767Z,28.00
2017-12-20T01:24:44.781Z,28.00
2017-12-20T01:25:44.793Z,29.30
2017-12-20T01:26:44.807Z,29.50
2017-12-20T01:27:44.820Z,29.00
2017-12-20T01:28:44.834Z,29.20
2017-12-20T01:29:44.845Z,29.60
2017-12-20T01:30:44.859Z,28.40
2017-12-20T01:31:44.876Z,28.20
2017-12-20T01:32:44.887Z,28.90
2017-12-20T01:33:44.900Z,29.60
2017-12-20T01:34:44.912Z,30.60
2017-12-20T01:35:44.926Z,30.60
2017-12-20T01:36:44.942Z,30.40
2017-12-20T01:37:44.952Z,30.20
2017-12-20T01:38:44.966Z,29.60
2017-12-20T01:39:44.978Z,30.50
2017-12-20T01:40:44.992Z,29.40
2017-12-20T01:41:45.004Z,30.20
2017-12-20T01:42:45.020Z,28.90
2017-12-20T01:43:45.031Z,30.10
2017-12-20T01:44:45.149Z,30.70
2017-12-20T01:45:45.057Z,31.00
2017-12-20T01:46:45.071Z,30.90
2017-12-20T01:47:45.087Z,32.20
2017-12-20T01:48:45.100Z,31.40
2017-12-20T01:49:45.114Z,32.50
2017-12-20T01:50:45.122Z,31.30
2017-12-20T01:51:45.134Z,32.40
2017-12-20T01:52:45.149Z,32.90
2017-12-20T01:53:45.161Z,31.70
2017-12-20T01:54:45.174Z,33.90
2017-12-20T01:55:45.192Z,33.90
2017-12-20T01:56:45.200Z,33.10
2017-12-20T01:57:45.212Z,32.50
2017-12-20T01:58:45.226Z,33.80
2017-12-20T01:59:45.241Z,33.60
2017-12-20T02:00:45.252Z,33.70
2017-12-20T02:01:45.267Z,33.60
2017-12-20T02:02:45.530Z,33.40
2017-12-20T02:03:45.292Z,32.70
2017-12-20T02:04:45.307Z,33.20
2017-12-20T02:05:45.321Z,32.80
2017-12-20T02:06:45.332Z,34.50
2017-12-20T02:07:45.356Z,33.50
2017-12-20T02:08:45.367Z,33.60
2017-12-20T02:09:45.373Z,34.50
2017-12-20T02:10:45.385Z,34.80
2017-12-20T02:11:45.402Z,33.30
2017-12-20T02:12:45.412Z,34.80
2017-12-20T02:13:45.425Z,34.50
2017-12-20T02:14:45.437Z,34.50
2017-12-20T02:15:45.553Z,33.70
2017-12-20T02:16:45.464Z,32.90
2017-12-20T02:17:45.476Z,34.10
2017-12-20T02:18:45.489Z,34.80
2017-12-20T02:19:45.502Z,33.30
2017-12-20T02:20:45.515Z,33.60
2017-12-20T02:21:45.530Z,34.10
2017-12-20T02:22:45.542Z,34.40
2017-12-20T02:23:45.555Z,33.90
2017-12-20T02:24:45.570Z,34.40
2017-12-20T02:25:45.585Z,33.30
2017-12-20T02:26:45.595Z,33.60
2017-12-20T02:27:45.608Z,34.90
2017-12-20T02:28:45.623Z,35.00
2017-12-20T02:29:45.635Z,33.80
2017-12-20T02:30:45.647Z,35.00
2017-12-20T02:31:45.662Z,36.10
2017-12-20T02:32:45.674Z,36.00
2017-12-20T02:33:45.692Z,36.10
2017-12-20T02:34:45.701Z,36.50
2017-12-20T02:35:45.715Z,34.50
2017-12-20T02:36:45.727Z,36.90
2017-12-20T02:37:45.742Z,35.40
2017-12-20T02:38:45.754Z,35.70
2017-12-20T02:39:45.767Z,36.60
2017-12-20T02:40:45.780Z,36.00
2017-12-20T02:41:45.796Z,34.60
2017-12-20T02:42:45.808Z,35.60
2017-12-20T02:43:45.823Z,36.80
2017-12-20T02:44:45.835Z,37.10
2017-12-20T02:45:45.847Z,36.50
2017-12-20T02:46:45.864Z,37.20
2017-12-20T02:47:45.877Z,35.00
2017-12-20T02:48:45.887Z,36.00
2017-12-20T02:49:45.901Z,36.10
2017-12-20T02:50:45.914Z,36.80
2017-12-20T02:51:45.926Z,36.00
2017-12-20T02:52:46.250Z,35.60
2017-12-20T02:53:45.955Z,35.20
2017-12-20T02:54:45.966Z,35.20
2017-12-20T02:55:45.981Z,35.70
2017-12-20T02:56:45.992Z,36.50
2017-12-20T02:57:46.007Z,37.70
2017-12-20T02:58:46.017Z,38.20
2017-12-20T02:59:46.036Z,38.10
2017-12-20T03:00:46.048Z,36.00
2017-12-20T03:01:46.058Z,38.20
2017-12-20T03:02:46.071Z,37.10
2017-12-20T03:03:46.085Z,36.90
2017-12-20T03:04:46.099Z,37.00
2017-12-20T03:05:46.116Z,38.10
2017-12-20T03:06:46.126Z,37.20
2017-12-20T03:07:46.144Z,37.10
2017-12-20T03:08:46.150Z,38.70
2017-12-20T03:09:46.210Z,36.20
2017-12-20T03:10:46.178Z,37.80
2017-12-20T03:11:46.193Z,38.60
2017-12-20T03:12:46.205Z,37.90
2017-12-20T03:13:46.219Z,37.30
2017-12-20T03:14:46.232Z,39.50
2017-12-20T03:15:46.244Z,38.20
2017-12-20T03:16:46.258Z,37.70
2017-12-20T03:17:46.275Z,39.60
2017-12-20T03:18:46.294Z,38.20
2017-12-20T03:19:46.300Z,40.00
2017-12-20T03:20:46.313Z,40.20
2017-12-20T03:21:46.327Z,39.90
2017-12-20T03:22:46.338Z,40.60
2017-12-20T03:23:46.350Z,39.70
2017-12-20T03:24:46.367Z,40.40
2017-12-20T03:25:46.379Z,40.50
2017-12-20T03:26:46.392Z,40.40
2017-12-20T03:27:46.405Z,40.10
2017-12-20T03:28:46.417Z,41.10
2017-12-20T03:29:46.431Z,41.40
2017-12-20T03:30:46.444Z,40.50
2017-12-20T03:31:46.455Z,41.60
2017-12-20T03:32:46.471Z,42.10
2017-12-20T03:33:46.484Z,43.30
2017-12-20T03:34:46.499Z,42.10
2017-12-20T03:35:46.510Z,40.20
2017-12-20T03:36:46.524Z,42.90
2017-12-20T03:37:46.538Z,42.90
2017-12-20T03:38:46.552Z,41.10
2017-12-20T03:39:46.561Z,42.70
2017-12-20T03:40:46.576Z,40.70
2017-12-20T03:41:46.590Z,41.60
2017-12-20T03:42:46.601Z,41.10
2017-12-20T03:43:46.613Z,41.50
2017-12-20T03:44:46.630Z,42.00
2017-12-20T03:45:46.643Z,43.40
2017-12-20T03:46:46.656Z,42.60
2017-12-20T03:47:46.667Z,42.90
2017-12-20T03:48:46.682Z,43.10
2017-12-20T03:49:46.702Z,42.70
2017-12-20T03:50:46.707Z,42.30
2017-12-20T03:51:46.720Z,41.80
2017-12-20T03:52:46.736Z,42.20
2017-12-20T03:53:46.746Z,42.90
2017-12-20T03:54:46.766Z,42.80
2017-12-20T03:55:46.773Z,42.30
2017-12-20T03:56:46.792Z,42.20
2017-12-20T03:57:46.805Z,40.70
2017-12-20T03:58:46.814Z,44.00
2017-12-20T03:59:46.828Z,45.00
2017-12-20T04:00:46.846Z,44.50
2017-12-20T04:01:46.855Z,43.80
2017-12-20T04:02:46.868Z,42.90
2017-12-20T04:03:46.880Z,44.40
2017-12-20T04:04:46.905Z,44.70
2017-12-20T04:05:46.909Z,44.90
2017-12-20T04:06:46.922Z,44.30
2017-12-20T04:07:46.935Z,44.30
2017-12-20T04:08:46.950Z,44.60
2017-12-20T04:09:46.964Z,45.40
2017-12-20T04:10:46.977Z,44.90
2017-12-20T04:11:46.987Z,45.20
2017-12-20T04:12:47.008Z,43.10
2017-12-20T04:13:47.016Z,44.00
2017-12-20T04:14:47.029Z,45.10
2017-12-20T04:15:47.043Z,44.70
2017-12-20T04:16:47.058Z,43.80
2017-12-20T04:17:47.070Z,42.30
2017-12-20T04:18:47.090Z,42.80
2017-12-20T04:19:47.096Z,42.60
2017-12-20T04:20:47.107Z,40.80
2017-12-20T04:21:47.116Z,41.00
2017-12-20T04:22:47.129Z,41.40
2017-12-20T04:23:47.143Z,41.20
2017-12-20T04:24:47.155Z,42.90
2017-12-20T04:25:47.171Z,42.60
2017-12-20T04:26:47.183Z,42.10
2017-12-20T04:27:47.198Z,43.10
2017-12-20T04:28:47.211Z,42.10
2017-12-20T04:29:47.223Z,42.30
2017-12-20T04:30:47.236Z,41.60
2017-12-20T04:31:47.250Z,42.00
2017-12-20T04:32:47.265Z,40.00
2017-12-20T04:33:47.278Z,41.30
2017-12-20T04:34:47.289Z,41.50
2017-12-20T04:35:47.304Z,43.50
2017-12-20T04:36:47.316Z,43.90
2017-12-20T04:37:47.329Z,43.40
2017-12-20T04:38:47.342Z,43.50
2017-12-20T04:39:47.356Z,44.40
2017-12-20T04:40:47.374Z,43.00
2017-12-20T04:41:47.384Z,42.40
2017-12-20T04:42:47.396Z,43.50
2017-12-20T04:43:47.409Z,44.50
2017-12-20T04:44:47.423Z,43.20
2017-12-20T04:45:47.437Z,42.70
2017-12-20T04:46:47.449Z,42.20
2017-12-20T04:47:47.462Z,42.10
2017-12-20T04:48:47.476Z,43.50
2017-12-20T04:49:47.489Z,43.00
2017-12-20T04:50:47.506Z,43.70
2017-12-20T04:51:47.515Z,43.40
2017-12-20T04:52:47.529Z,41.60
2017-12-20T04:53:47.541Z,41.70
2017-12-20T04:54:47.553Z,42.40
2017-12-20T04:55:47.566Z,43.50
2017-12-20T04:56:47.680Z,42.50
2017-12-20T04:57:47.597Z,42.60
2017-12-20T04:58:47.607Z,42.10
2017-12-20T04:59:47.620Z,43.60
2017-12-20T05:00:47.634Z,42.10
2017-12-20T05:01:47.648Z,41.50
2017-12-20T05:02:47.660Z,39.30
2017-12-20T05:03:47.674Z,40.90
2017-12-20T05:04:47.687Z,41.70
2017-12-20T05:05:47.700Z,42.20
2017-12-20T05:06:47.711Z,41.30
2017-12-20T05:07:47.726Z,41.60
2017-12-20T05:08:47.740Z,40.80
2017-12-20T05:09:47.754Z,41.10
2017-12-20T05:10:47.765Z,40.80
2017-12-20T05:11:47.779Z,41.10
2017-12-20T05:12:47.801Z,40.60
2017-12-20T05:13:47.807Z,41.70
2017-12-20T05:14:47.822Z,43.70
2017-12-20T05:15:47.832Z,42.90
2017-12-20T05:16:47.846Z,43.50
2017-12-20T05:17:47.858Z,42.00
2017-12-20T05:18:47.871Z,43.00
2017-12-20T05:19:47.885Z,42.40
2017-12-20T05:20:47.898Z,43.40
2017-12-20T05:21:47.911Z,43.60
2017-12-20T05:22:47.923Z,43.00
2017-12-20T05:23:47.936Z,42.00
2017-12-20T05:24:47.952Z,43.30
2017-12-20T05:25:47.965Z,42.30
2017-12-20T05:26:47.975Z,44.10
2017-12-20T05:27:47.989Z,42.80
2017-12-20T05:28:48.002Z,45.00
2017-12-20T05:29:48.015Z,43.60
2017-12-20T05:30:48.030Z,41.40
2017-12-20T05:31:48.040Z,43.70
2017-12-20T05:32:48.056Z,45.10
2017-12-20T05:33:48.066Z,42.10
2017-12-20T05:34:48.079Z,44.50
2017-12-20T05:35:48.092Z,43.10
2017-12-20T05:36:48.108Z,43.10
2017-12-20T05:37:48.118Z,43.50
2017-12-20T05:38:48.131Z,45.60
2017-12-20T05:39:48.143Z,44.20
2017-12-20T05:40:48.156Z,42.20
2017-12-20T05:41:48.169Z,43.90
2017-12-20T05:42:48.181Z,43.70
2017-12-20T05:43:48.196Z,42.50
2017-12-20T05:44:48.207Z,44.10
2017-12-20T05:45:48.222Z,42.60
2017-12-20T05:46:48.236Z,42.60
2017-12-20T05:47:48.249Z,41.50
2017-12-20T05:48:48.259Z,43.50
2017-12-20T05:49:48.272Z,41.60
2017-12-20T05:50:48.284Z,41.20
2017-12-20T05:51:48.298Z,40.30
2017-12-20T05:52:48.312Z,42.20
2017-12-20T05:53:48.324Z,42.00
2017-12-20T05:54:48.335Z,42.20
2017-12-20T05:55:48.350Z,42.80
2017-12-20T05:56:48.362Z,41.00
2017-12-20T05:57:48.375Z,38.60
2017-12-20T05:58:48.389Z,39.70
2017-12-20T05:59:48.401Z,39.80
2017-12-20T06:00:48.416Z,39.20
2017-12-20T06:01:48.428Z,39.20
2017-12-20T06:02:48.439Z,39.60
2017-12-20T06:03:48.453Z,39.50
2017-12-20T06:04:48.523Z,37.20
2017-12-20T06:05:48.480Z,39.20
2017-12-20T06:06:48.492Z,37.30
2017-12-20T06:07:48.505Z,36.20
2017-12-20T06:08:48.521Z,36.80
2017-12-20T06:09:48.533Z,38.20
2017-12-20T06:10:48.545Z,38.00
2017-12-20T06:11:48.558Z,40.10
2017-12-20T06:12:48.572Z,37.20
2017-12-20T06:13:48.587Z,38.30
2017-12-20T06:14:48.598Z,38.90
2017-12-20T06:15:48.711Z,38.20
2017-12-20T06:16:48.624Z,38.90
2017-12-20T06:17:48.638Z,39.50
2017-12-20T06:18:48.704Z,37.90
2017-12-20T06:19:48.663Z,37.60
2017-12-20T06:20:48.677Z,39.00
2017-12-20T06:21:48.691Z,38.20
2017-12-20T06:22:48.704Z,38.10
2017-12-20T06:23:48.715Z,37.30
2017-12-20T06:24:48.732Z,37.90
2017-12-20T06:25:48.742Z,39.70
2017-12-20T06:26:48.755Z,37.90
2017-12-20T06:27:48.767Z,38.10
2017-12-20T06:28:48.785Z,38.80
2017-12-20T06:29:48.794Z,37.90
2017-12-20T06:30:48.813Z,40.00
2017-12-20T06:31:48.822Z,41.30
2017-12-20T06:32:48.834Z,40.70
2017-12-20T06:33:48.849Z,38.40
2017-12-20T06:34:48.861Z,38.50
2017-12-20T06:35:48.874Z,38.20
2017-12-20T06:36:48.887Z,39.40
2017-12-20T06:37:48.901Z,38.80
2017-12-20T06:38:48.914Z,40.00
2017-12-20T06:39:48.927Z,40.10
2017-12-20T06:40:49.043Z,39.90
2017-12-20T06:41:48.954Z,38.90
2017-12-20T06:42:48.967Z,39.40
2017-12-20T06:43:48.981Z,41.50
2017-12-20T06:44:49.029Z,40.90
2017-12-20T06:45:49.008Z,39.60
2017-12-20T06:46:49.022Z,37.60
2017-12-20T06:47:49.035Z,39.00
2017-12-20T06:48:49.050Z,39.90
2017-12-20T06:49:49.062Z,39.50
2017-12-20T06:50:49.077Z,38.80
2017-12-20T06:51:49.095Z,39.10
2017-12-20T06:52:49.102Z,38.50
2017-12-20T06:53:49.116Z,38.00
2017-12-20T06:54:49.128Z,39.50
2017-12-20T06:55:49.145Z,38.40
2017-12-20T06:56:49.156Z,38.70
2017-12-20T06:57:49.170Z,39.20
2017-12-20T06:58:49.186Z,41.10
2017-12-20T06:59:49.197Z,38.20
2017-12-20T07:00:49.209Z,41.10
2017-12-20T07:01:49.222Z,41.80
2017-12-20T07:02:49.236Z,40.60
2017-12-20T07:03:49.255Z,39.90
2017-12-20T07:04:49.262Z,40.00
2017-12-20T07:05:49.275Z,39.30
2017-12-20T07:06:49.288Z,38.90
2017-12-20T07:07:49.302Z,41.20
2017-12-20T07:08:49.318Z,41.80
2017-12-20T07:09:49.334Z,41.00
2017-12-20T07:10:49.342Z,40.60
2017-12-20T07:11:49.356Z,39.80
2017-12-20T07:12:49.374Z,39.20
2017-12-20T07:13:49.384Z,39.20
2017-12-20T07:14:49.398Z,40.20
2017-12-20T07:15:49.410Z,40.30
2017-12-20T07:16:49.422Z,40.70
2017-12-20T07:17:49.437Z,40.80
2017-12-20T07:18:49.450Z,39.20
2017-12-20T07:19:49.464Z,40.20
2017-12-20T07:20:49.484Z,41.30
2017-12-20T07:21:49.492Z,40.20
2017-12-20T07:22:49.511Z,40.20
2017-12-20T07:23:49.523Z,39.40
2017-12-20T07:24:49.533Z,39.10
2017-12-20T07:25:49.547Z,39.50
2017-12-20T07:26:49.576Z,39.70
2017-12-20T07:27:49.584Z,41.10
2017-12-20T07:28:50.444Z,39.10
2017-12-20T07:29:49.607Z,40.50
2017-12-20T07:30:49.615Z,40.40
2017-12-20T07:31:49.633Z,40.30
2017-12-20T07:32:49.642Z,40.90
2017-12-20T07:33:49.661Z,39.80
2017-12-20T07:34:49.669Z,39.30
2017-12-20T07:35:49.686Z,38.90
2017-12-20T07:36:49.813Z,39.70
2017-12-20T07:37:49.726Z,39.50
2017-12-20T07:38:49.722Z,39.40
2017-12-20T07:39:49.743Z,38.70
2017-12-20T07:40:49.753Z,38.60
2017-12-20T07:41:49.766Z,38.00
2017-12-20T07:42:49.778Z,39.10
2017-12-20T07:43:49.795Z,37.40
2017-12-20T07:44:49.807Z,36.60
2017-12-20T07:45:49.821Z,36.40
2017-12-20T07:46:49.834Z,36.50
2017-12-20T07:47:49.854Z,37.60
2017-12-20T07:48:49.859Z,37.20
2017-12-20T07:49:49.877Z,38.10
2017-12-20T07:50:49.898Z,38.30
2017-12-20T07:51:49.901Z,36.70
2017-12-20T07:52:49.945Z,38.00
2017-12-20T07:53:49.934Z,38.60
2017-12-20T07:54:49.948Z,36.90
2017-12-20T07:55:49.956Z,38.80
2017-12-20T07:56:49.971Z,38.30
2017-12-20T07:57:49.991Z,36.50
2017-12-20T07:58:49.996Z,37.30
2017-12-20T07:59:50.010Z,39.00
2017-12-20T08:00:50.025Z,38.30
2017-12-20T08:01:50.039Z,36.60
2017-12-20T08:02:50.059Z,36.00
2017-12-20T08:03:50.065Z,36.00
2017-12-20T08:04:50.080Z,37.30
2017-12-20T08:05:50.094Z,35.30
2017-12-20T08:06:50.108Z,35.10
2017-12-20T08:07:50.121Z,33.50
2017-12-20T08:08:50.133Z,33.10
2017-12-20T08:09:50.149Z,35.50
2017-12-20T08:10:50.162Z,34.00
2017-12-20T08:11:50.173Z,33.30
2017-12-20T08:12:50.189Z,34.60
2017-12-20T08:13:50.202Z,34.70
2017-12-20T08:14:50.215Z,34.70
2017-12-20T08:15:50.227Z,35.30
2017-12-20T08:16:50.243Z,35.50
2017-12-20T08:17:50.257Z,35.30
2017-12-20T08:18:50.271Z,34.60
2017-12-20T08:19:50.283Z,34.50
2017-12-20T08:20:50.299Z,34.30
2017-12-20T08:21:50.314Z,36.70
2017-12-20T08:22:50.325Z,34.60
2017-12-20T08:23:50.338Z,34.80
2017-12-20T08:24:50.352Z,33.80
2017-12-20T08:25:50.366Z,35.80
2017-12-20T08:26:50.379Z,35.10
2017-12-20T08:27:50.399Z,34.40
2017-12-20T08:28:50.407Z,34.10
2017-12-20T08:29:50.429Z,32.90
2017-12-20T08:30:50.439Z,34.10
2017-12-20T08:31:50.446Z,33.10
2017-12-20T08:32:50.464Z,33.80
2017-12-20T08:33:51.097Z,33.00
2017-12-20T08:34:50.489Z,34.20
2017-12-20T08:35:50.503Z,33.40
2017-12-20T08:36:50.526Z,33.00
2017-12-20T08:37:50.531Z,31.60
2017-12-20T08:38:50.544Z,32.90
2017-12-20T08:39:50.558Z,32.60
2017-12-20T08:40:50.605Z,31.50
2017-12-20T08:41:50.585Z,33.50
2017-12-20T08:42:50.601Z,32.20
2017-12-20T08:43:50.618Z,32.50
2017-12-20T08:44:50.631Z,32.50
2017-12-20T08:45:50.965Z,32.50
2017-12-20T08:46:50.657Z,31.50
2017-12-20T08:47:50.669Z,32.70
2017-12-20T08:48:50.692Z,32.40
2017-12-20T08:49:50.697Z,32.10
2017-12-20T08:50:50.710Z,32.60
2017-12-20T08:51:50.724Z,32.30
2017-12-20T08:52:50.739Z,32.40
2017-12-20T08:53:50.753Z,32.60
2017-12-20T08:54:50.766Z,33.60
2017-12-20T08:55:50.779Z,32.40
2017-12-20T08:56:50.793Z,33.40
2017-12-20T08:57:50.807Z,33.60
2017-12-20T08:58:50.829Z,33.30
2017-12-20T08:59:50.836Z,33.40
2017-12-20T09:00:50.849Z,33.00
2017-12-20T09:01:50.860Z,33.10
2017-12-20T09:02:50.873Z,32.70
2017-12-20T09:03:50.885Z,33.40
2017-12-20T09:04:50.902Z,34.10
2017-12-20T09:05:50.914Z,32.80
2017-12-20T09:06:50.990Z,31.50
2017-12-20T09:07:50.947Z,33.40
2017-12-20T09:08:50.955Z,32.80
2017-12-20T09:09:50.973Z,32.20
2017-12-20T09:10:50.983Z,33.00
2017-12-20T09:11:50.996Z,34.20
2017-12-20T09:12:51.013Z,33.80
2017-12-20T09:13:51.313Z,33.40
2017-12-20T09:14:51.040Z,33.40
2017-12-20T09:15:51.053Z,34.30
2017-12-20T09:16:51.068Z,34.10
2017-12-20T09:17:51.084Z,35.20
2017-12-20T09:18:51.096Z,35.10
2017-12-20T09:19:51.210Z,34.90
2017-12-20T09:20:51.132Z,33.60
2017-12-20T09:21:51.156Z,35.00
2017-12-20T09:22:51.152Z,34.10
2017-12-20T09:23:51.165Z,35.20
2017-12-20T09:24:51.181Z,36.80
2017-12-20T09:25:51.205Z,36.60
2017-12-20T09:26:51.210Z,34.50
2017-12-20T09:27:51.226Z,34.40
2017-12-20T09:28:51.243Z,34.60
2017-12-20T09:29:51.273Z,34.50
2017-12-20T09:30:51.274Z,35.30
2017-12-20T09:31:51.279Z,35.00
2017-12-20T09:32:51.294Z,35.00
2017-12-20T09:33:51.307Z,34.90
2017-12-20T09:34:51.321Z,33.80
2017-12-20T09:35:51.335Z,34.30
2017-12-20T09:36:51.351Z,35.40
2017-12-20T09:37:51.366Z,36.20
2017-12-20T09:38:51.378Z,35.50
2017-12-20T09:39:51.397Z,36.40
2017-12-20T09:40:51.405Z,37.20
2017-12-20T09:41:51.420Z,37.80
2017-12-20T09:42:51.433Z,37.40
2017-12-20T09:43:51.448Z,39.10
2017-12-20T09:44:51.462Z,39.10
2017-12-20T09:45:51.478Z,39.50
2017-12-20T09:46:51.489Z,38.10
2017-12-20T09:47:51.505Z,38.80
2017-12-20T09:48:51.518Z,40.50
2017-12-20T09:49:51.531Z,39.40
2017-12-20T09:50:51.546Z,39.40
2017-12-20T09:51:51.562Z,39.00
2017-12-20T09:52:51.576Z,40.40
2017-12-20T09:53:51.589Z,42.70
2017-12-20T09:54:51.612Z,39.90
2017-12-20T09:55:51.629Z,41.20
2017-12-20T09:56:51.681Z,39.50
2017-12-20T09:57:51.647Z,40.70
2017-12-20T09:58:51.660Z,39.00
2017-12-20T09:59:51.674Z,38.20
2017-12-20T10:00:51.689Z,39.80
2017-12-20T10:01:51.700Z,39.40
2017-12-20T10:02:51.715Z,41.50
2017-12-20T10:03:51.729Z,40.30
2017-12-20T10:04:51.744Z,39.30
2017-12-20T10:05:51.759Z,38.50
2017-12-20T10:06:51.822Z,38.50
2017-12-20T10:07:51.788Z,37.70
2017-12-20T10:08:51.801Z,36.80
2017-12-20T10:09:51.815Z,36.90
2017-12-20T10:10:51.828Z,36.30
2017-12-20T10:11:51.946Z,36.70
2017-12-20T10:12:51.919Z,37.90
2017-12-20T10:13:51.871Z,36.40
2017-12-20T10:14:51.885Z,35.60
2017-12-20T10:15:52.325Z,35.00
2017-12-20T10:16:51.915Z,33.10
2017-12-20T10:17:51.929Z,32.90
2017-12-20T10:18:51.943Z,34.20
2017-12-20T10:19:51.956Z,36.10
2017-12-20T10:20:51.975Z,37.20
2017-12-20T10:21:51.987Z,36.60
2017-12-20T10:22:52.000Z,35.60
2017-12-20T10:23:52.027Z,35.50
2017-12-20T10:24:52.028Z,35.20
2017-12-20T10:25:52.043Z,35.90
2017-12-20T10:26:52.062Z,36.30
2017-12-20T10:27:52.071Z,35.10
2017-12-20T10:28:52.088Z,34.90
2017-12-20T10:29:52.100Z,33.60
2017-12-20T10:30:52.114Z,34.10
2017-12-20T10:31:52.127Z,33.90
2017-12-20T10:32:52.153Z,34.30
2017-12-20T10:33:52.156Z,35.60
2017-12-20T10:34:52.171Z,33.40
2017-12-20T10:35:52.184Z,33.70
2017-12-20T10:36:52.199Z,33.80
2017-12-20T10:37:52.213Z,33.90
2017-12-20T10:38:52.226Z,32.40
2017-12-20T10:39:52.241Z,32.80
2017-12-20T10:40:52.257Z,33.80
2017-12-20T10:41:52.271Z,33.70
2017-12-20T10:42:52.834Z,35.00
2017-12-20T10:43:52.507Z,34.10
2017-12-20T10:44:52.311Z,35.00
2017-12-20T10:45:52.328Z,33.60
2017-12-20T10:46:52.339Z,34.50
2017-12-20T10:47:52.356Z,32.10
2017-12-20T10:48:52.369Z,31.20
2017-12-20T10:49:52.387Z,32.20
2017-12-20T10:50:52.397Z,32.80
2017-12-20T10:51:52.606Z,32.20
2017-12-20T10:52:52.713Z,32.60
2017-12-20T10:53:52.994Z,33.80
2017-12-20T10:54:52.452Z,32.90
2017-12-20T10:55:52.468Z,31.50
2017-12-20T10:56:52.485Z,32.30
2017-12-20T10:57:52.496Z,31.80
2017-12-20T10:58:52.510Z,32.00
2017-12-20T10:59:52.639Z,31.20
2017-12-20T11:00:52.554Z,32.30
2017-12-20T11:01:52.563Z,31.90
2017-12-20T11:02:52.566Z,32.20
2017-12-20T11:03:52.595Z,30.70
2017-12-20T11:04:52.592Z,29.50
2017-12-20T11:05:52.619Z,31.00
2017-12-20T11:06:52.620Z,30.70
2017-12-20T11:07:52.648Z,30.40
2017-12-20T11:08:52.650Z,32.40
2017-12-20T11:09:52.665Z,33.20
2017-12-20T11:10:52.691Z,33.90
2017-12-20T11:11:52.690Z,33.50
2017-12-20T11:12:53.360Z,33.30
2017-12-20T11:13:53.352Z,34.20
2017-12-20T11:14:52.980Z,33.20
2017-12-20T11:15:54.238Z,32.30
2017-12-20T11:16:52.760Z,33.40
2017-12-20T11:17:52.775Z,33.80
2017-12-20T11:18:52.787Z,34.80
2017-12-20T11:19:52.804Z,32.10
2017-12-20T11:20:53.044Z,32.10
2017-12-20T11:21:52.835Z,31.30
2017-12-20T11:22:52.945Z,31.50
2017-12-20T11:23:53.567Z,30.60
2017-12-20T11:24:52.984Z,29.00
2017-12-20T11:25:52.890Z,30.50
2017-12-20T11:27:53.018Z,29.90
2017-12-20T11:28:52.931Z,30.00
2017-12-20T11:29:52.946Z,29.70
2017-12-20T11:30:52.965Z,28.30
2017-12-20T11:31:52.975Z,29.80
2017-12-20T11:32:52.988Z,29.80
2017-12-20T11:33:53.001Z,30.50
2017-12-20T11:34:53.017Z,29.50
2017-12-20T11:35:53.168Z,29.50
2017-12-20T11:36:53.047Z,29.90
2017-12-20T11:37:53.060Z,31.30
2017-12-20T11:38:53.083Z,31.10
2017-12-20T11:39:53.083Z,31.00
2017-12-20T11:40:53.098Z,30.40
2017-12-20T11:41:53.112Z,29.90
2017-12-20T11:42:53.126Z,31.70
2017-12-20T11:43:53.140Z,31.90
2017-12-20T11:44:53.155Z,32.00
2017-12-20T11:45:53.180Z,30.70
2017-12-20T11:46:53.195Z,30.50
2017-12-20T11:47:53.196Z,30.60
2017-12-20T11:48:53.212Z,31.40
2017-12-20T11:49:53.226Z,32.50
2017-12-20T11:50:53.255Z,29.90
2017-12-20T11:51:53.270Z,31.80
2017-12-20T11:52:53.269Z,31.40
2017-12-20T11:53:53.290Z,31.60
2017-12-20T11:54:53.296Z,31.00
2017-12-20T11:55:53.313Z,30.50
2017-12-20T11:56:53.332Z,30.40
2017-12-20T11:57:53.342Z,29.50
2017-12-20T11:58:53.359Z,31.30
2017-12-20T11:59:53.368Z,31.30
2017-12-20T12:00:53.385Z,31.40
2017-12-20T12:01:53.410Z,32.00
2017-12-20T12:02:53.411Z,33.10
2017-12-20T12:03:53.425Z,33.10
2017-12-20T12:04:53.440Z,30.80
2017-12-20T12:05:53.465Z,31.30
2017-12-20T12:06:53.468Z,30.90
2017-12-20T12:07:53.480Z,32.80
2017-12-20T12:08:53.497Z,32.10
2017-12-20T12:09:53.510Z,35.20
2017-12-20T12:10:53.525Z,32.30
2017-12-20T12:11:53.537Z,33.30
2017-12-20T12:12:53.555Z,32.70
2017-12-20T12:13:53.567Z,31.20
2017-12-20T12:14:53.581Z,32.20
2017-12-20T12:15:53.803Z,33.40
2017-12-20T12:16:53.608Z,33.00
2017-12-20T12:17:53.623Z,30.20
2017-12-20T12:18:53.638Z,29.70
2017-12-20T12:19:53.651Z,31.60
2017-12-20T12:20:53.667Z,32.50
2017-12-20T12:21:53.681Z,31.00
2017-12-20T12:22:53.834Z,30.90
2017-12-20T12:23:53.709Z,30.70
2017-12-20T12:24:55.940Z,31.10
2017-12-20T12:25:53.749Z,31.20
2017-12-20T12:26:53.754Z,31.50
2017-12-20T12:27:53.766Z,30.70
2017-12-20T12:28:53.796Z,30.40
2017-12-20T12:29:53.793Z,31.90
2017-12-20T12:30:53.806Z,32.20
2017-12-20T12:31:53.820Z,31.40
2017-12-20T12:32:53.836Z,32.60
2017-12-20T12:33:53.846Z,31.40
2017-12-20T12:34:53.866Z,31.50
2017-12-20T12:35:53.901Z,31.80
2017-12-20T12:36:53.892Z,33.40
2017-12-20T12:37:53.904Z,33.20
2017-12-20T12:38:53.919Z,33.70
2017-12-20T12:39:53.936Z,30.60
2017-12-20T12:40:53.950Z,31.70
2017-12-20T12:41:53.962Z,31.90
2017-12-20T12:42:54.028Z,33.50
2017-12-20T12:43:53.994Z,32.40
2017-12-20T12:44:54.003Z,32.60
2017-12-20T12:45:54.068Z,31.20
2017-12-20T12:46:54.031Z,33.30
2017-12-20T12:47:54.045Z,33.60
2017-12-20T12:48:54.064Z,31.70
2017-12-20T12:49:54.074Z,33.70
2017-12-20T12:50:54.087Z,34.00
2017-12-20T12:51:54.100Z,35.50
2017-12-20T12:52:54.117Z,34.60
2017-12-20T12:53:54.132Z,34.30